Time;durP1;ratioP1;P1;durP2;ratioP2;P2;SDS_P1;SDS_P2;PMS_P1;PMS_P2;Temp;Humidity;BMP_temperature;BMP_pressure;BME280_temperature;BME280_humidity;BME280_pressure;Samples;Min_cycle;Max_cycle;Signal;HPM_P1;HPM_P2
2022/05/08 00:01:04;;;;;;;5.75;3.90;;;12.70;99.90;;;;;;5117170;27;20394;-89
2022/05/08 00:03:30;;;;;;;;;;;12.70;99.90;;;;;;5120488;27;20054;-88
2022/05/08 00:05:55;;;;;;;6.25;4.35;;;12.70;99.90;;;;;;5116360;27;19904;-89
2022/05/08 00:08:21;;;;;;;;;;;12.70;99.90;;;;;;5117140;27;20069;-87
2022/05/08 00:10:46;;;;;;;6.82;3.92;;;12.70;99.90;;;;;;5117139;27;20491;-90
2022/05/08 00:13:14;;;;;;;;;;;12.60;99.90;;;;;;5117340;27;20019;-90
2022/05/08 00:15:40;;;;;;;6.10;4.15;;;12.60;99.90;;;;;;5116503;27;19903;-90
2022/05/08 00:18:06;;;;;;;6.22;3.78;;;12.60;99.90;;;;;;5116618;27;20026;-90
2022/05/08 00:20:33;;;;;;;5.32;3.35;;;12.60;99.90;;;;;;5095844;28;20118;-89
2022/05/08 00:22:58;;;;;;;5.28;3.72;;;12.60;99.90;;;;;;5095940;28;20106;-89
2022/05/08 00:25:26;;;;;;;;;;;12.60;99.90;;;;;;5096160;28;20059;-89
2022/05/08 00:27:51;;;;;;;;;;;12.50;99.90;;;;;;5096677;28;19910;-88
2022/05/08 00:30:17;;;;;;;4.55;3.53;;;12.50;99.90;;;;;;5113987;27;19916;-87
2022/05/08 00:32:43;;;;;;;;;;;12.50;99.90;;;;;;5116398;27;20019;-88
2022/05/08 00:35:10;;;;;;;4.30;3.65;;;12.40;99.90;;;;;;5116301;27;19908;-89
2022/05/08 00:37:36;;;;;;;5.05;4.00;;;12.40;99.90;;;;;;5115917;27;20015;-89
2022/05/08 00:40:02;;;;;;;8.10;4.72;;;12.40;99.90;;;;;;5115099;28;20076;-88
2022/05/08 00:42:28;;;;;;;;;;;12.40;99.90;;;;;;5116399;27;20023;-88
2022/05/08 00:44:53;;;;;;;5.22;4.18;;;12.30;99.90;;;;;;5116210;27;19961;-89
2022/05/08 00:47:19;;;;;;;;;;;12.30;99.90;;;;;;5116038;27;20403;-89
2022/05/08 00:49:45;;;;;;;6.30;3.72;;;12.30;99.90;;;;;;5115670;27;19911;-88
2022/05/08 00:52:11;;;;;;;;;;;12.30;99.90;;;;;;5116534;27;20019;-90
2022/05/08 00:54:37;;;;;;;10.77;4.13;;;12.20;99.90;;;;;;5115814;27;19903;-89
2022/05/08 00:57:03;;;;;;;;;;;12.30;99.90;;;;;;5134111;27;20364;-89
2022/05/08 00:59:29;;;;;;;5.63;4.05;;;12.20;99.90;;;;;;5115336;27;19915;-90
2022/05/08 01:01:54;;;;;;;;;;;12.20;99.90;;;;;;5115888;27;20035;-89
2022/05/08 01:04:20;;;;;;;6.65;4.82;;;12.20;99.90;;;;;;5117123;27;19908;-87
2022/05/08 01:06:45;;;;;;;;;;;12.10;99.90;;;;;;5134314;27;20021;-88
2022/05/08 01:09:11;;;;;;;10.93;4.00;;;12.10;99.90;;;;;;5115214;27;19911;-87
2022/05/08 01:11:37;;;;;;;;;;;12.10;99.90;;;;;;5134922;27;20027;-87
2022/05/08 01:14:02;;;;;;;8.68;3.92;;;12.10;99.90;;;;;;5116757;27;19949;-89
2022/05/08 01:16:29;;;;;;;;;;;12.10;99.90;;;;;;5135060;27;20018;-88
2022/05/08 01:18:55;;;;;;;7.33;4.00;;;12.00;99.90;;;;;;5132049;27;19942;-89
2022/05/08 01:21:29;;;;;;;;;;;12.00;99.90;;;;;;5134367;27;20095;-87
2022/05/08 01:23:55;;;;;;;5.57;4.05;;;12.10;99.90;;;;;;5133954;27;19910;-88
2022/05/08 01:26:23;;;;;;;;;;;12.00;99.90;;;;;;5134237;27;20027;-88
2022/05/08 01:28:49;;;;;;;6.70;4.20;;;12.00;99.90;;;;;;5113455;27;20367;-85
2022/05/08 01:31:15;;;;;;;;;;;12.00;99.90;;;;;;5113782;27;20076;-86
2022/05/08 01:33:41;;;;;;;6.90;4.00;;;12.00;99.90;;;;;;5114823;27;19910;-86
2022/05/08 01:36:06;;;;;;;;;;;11.90;99.90;;;;;;5115105;27;20376;-86
2022/05/08 01:38:32;;;;;;;7.05;4.20;;;11.90;99.90;;;;;;5110857;28;19942;-84
2022/05/08 01:41:03;;;;;;;;;;;11.90;99.90;;;;;;5090998;27;20063;-83
2022/05/08 01:43:32;;;;;;;5.50;3.95;;;11.90;99.90;;;;;;5085855;28;19916;-84
2022/05/08 01:45:58;;;;;;;7.95;5.35;;;11.80;99.90;;;;;;5077413;28;20561;-84
2022/05/08 01:48:23;;;;;;;13.15;4.18;;;11.80;99.90;;;;;;5098997;27;20149;-84
2022/05/08 01:50:50;;;;;;;;;;;11.80;99.90;;;;;;5087803;28;20118;-85
2022/05/08 01:53:23;;;;;;;5.43;4.38;;;11.80;99.90;;;;;;5097208;27;20104;-85
2022/05/08 01:55:53;;;;;;;6.90;4.70;;;11.90;99.90;;;;;;5095204;27;20043;-85
2022/05/08 01:58:19;;;;;;;4.47;3.55;;;11.90;99.90;;;;;;5075265;28;20033;-85
2022/05/08 02:00:45;;;;;;;;;;;11.90;99.90;;;;;;5088768;28;20373;-85
2022/05/08 02:03:12;;;;;;;6.72;4.25;;;11.90;99.90;;;;;;5090931;28;20367;-85
2022/05/08 02:05:40;;;;;;;7.60;4.50;;;11.90;99.90;;;;;;5090775;28;20040;-85
2022/05/08 02:08:06;;;;;;;6.93;4.45;;;11.90;99.90;;;;;;5086054;28;20032;-84
2022/05/08 02:10:32;;;;;;;;;;;11.80;99.90;;;;;;5093016;28;20055;-84
2022/05/08 02:12:57;;;;;;;6.32;4.53;;;11.80;99.90;;;;;;5091552;28;20296;-84
2022/05/08 02:15:29;;;;;;;;;;;11.80;99.90;;;;;;5088890;28;20036;-84
2022/05/08 02:17:55;;;;;;;8.52;4.45;;;11.80;99.90;;;;;;5096028;28;19923;-85
2022/05/08 02:20:20;;;;;;;6.22;5.00;;;11.70;99.90;;;;;;5086414;28;20079;-84
2022/05/08 02:22:46;;;;;;;;;;;11.70;99.90;;;;;;5103731;28;20059;-85
2022/05/08 02:25:11;;;;;;;5.63;4.25;;;11.70;99.90;;;;;;5093148;28;19907;-84
2022/05/08 02:27:40;;;;;;;;;;;11.70;99.90;;;;;;5111749;28;20024;-84
2022/05/08 02:30:11;;;;;;;9.27;5.18;;;11.70;99.90;;;;;;5093091;28;19962;-84
2022/05/08 02:32:37;;;;;;;4.75;3.95;;;11.70;99.90;;;;;;5092386;28;20024;-85
2022/05/08 02:35:06;;;;;;;10.52;4.63;;;11.60;99.90;;;;;;5092678;28;20038;-85
2022/05/08 02:37:32;;;;;;;12.52;4.82;;;11.60;99.90;;;;;;5092649;28;20051;-85
2022/05/08 02:39:58;;;;;;;;;;;11.60;99.90;;;;;;5093731;28;20159;-85
2022/05/08 02:42:23;;;;;;;4.40;3.95;;;11.60;99.90;;;;;;5110754;28;20418;-84
2022/05/08 02:44:49;;;;;;;;;;;11.60;99.90;;;;;;5093181;28;20027;-85
2022/05/08 02:47:14;;;;;;;8.82;4.50;;;11.60;99.90;;;;;;5092922;28;20367;-84
2022/05/08 02:49:40;;;;;;;;;;;11.60;99.90;;;;;;5093080;28;20040;-84
2022/05/08 02:52:06;;;;;;;6.65;4.55;;;11.60;99.90;;;;;;5093065;28;19904;-85
2022/05/08 02:54:32;;;;;;;10.15;5.20;;;11.70;99.90;;;;;;5111226;28;20034;-86
2022/05/08 02:59:41;;;;;;;6.90;4.50;;;11.80;99.90;;;;;;5111039;28;20370;-85
2022/05/08 03:02:08;;;;;;;;;;;11.90;99.90;;;;;;5093028;28;20040;-84
2022/05/08 03:04:34;;;;;;;12.05;4.68;;;11.90;99.90;;;;;;5095071;28;19951;-85
2022/05/08 03:07:02;;;;;;;;;;;12.00;99.90;;;;;;5097313;28;20108;-85
2022/05/08 03:09:28;;;;;;;7.78;4.78;;;12.00;99.90;;;;;;5096577;28;20279;-85
2022/05/08 03:11:54;;;;;;;7.50;4.32;;;12.00;99.90;;;;;;5096998;28;20036;-85
2022/05/08 03:14:20;;;;;;;;;;;12.10;99.90;;;;;;5096962;28;20111;-86
2022/05/08 03:16:47;;;;;;;3.97;3.55;;;12.10;99.90;;;;;;5096455;28;20352;-85
2022/05/08 03:19:13;;;;;;;9.35;4.20;;;12.20;99.90;;;;;;5114216;28;20027;-85
2022/05/08 03:21:40;;;;;;;5.20;4.50;;;12.20;99.90;;;;;;5096700;28;20441;-86
2022/05/08 03:24:08;;;;;;;5.10;4.00;;;12.20;99.90;;;;;;5096274;28;20085;-85
2022/05/08 03:26:33;;;;;;;4.75;3.78;;;12.30;99.90;;;;;;5096825;28;20122;-86
2022/05/08 03:28:59;;;;;;;;;;;12.40;99.90;;;;;;5097014;28;20123;-84
2022/05/08 03:31:25;;;;;;;6.60;5.35;;;12.40;99.90;;;;;;5096130;28;19961;-86
2022/05/08 03:33:50;;;;;;;;;;;12.40;99.90;;;;;;5115133;28;20030;-86
2022/05/08 03:36:16;;;;;;;9.02;5.80;;;12.40;99.90;;;;;;5114239;28;19950;-86
2022/05/08 03:38:43;;;;;;;;;;;12.50;99.90;;;;;;5114995;28;20047;-86
2022/05/08 03:41:08;;;;;;;7.43;5.18;;;12.60;99.90;;;;;;5096165;28;19904;-85
2022/05/08 03:43:34;;;;;;;;;;;12.60;99.90;;;;;;5100342;28;20051;-85
2022/05/08 03:46:00;;;;;;;4.65;3.55;;;12.60;99.90;;;;;;5095427;28;20040;-86
2022/05/08 03:48:27;;;;;;;5.40;4.45;;;12.70;99.90;;;;;;5114229;28;20609;-86
2022/05/08 03:50:53;;;;;;;4.10;3.70;;;12.80;99.90;;;;;;5114423;28;20149;-83
2022/05/08 03:53:19;;;;;;;;;;;12.80;99.90;;;;;;5114430;28;20609;-86
2022/05/08 03:55:44;;;;;;;9.05;3.58;;;12.90;99.90;;;;;;5095848;28;19911;-85
2022/05/08 03:58:10;;;;;;;;;;;13.00;99.90;;;;;;5096506;28;20110;-86
2022/05/08 04:00:35;;;;;;;6.88;3.92;;;13.10;99.90;;;;;;5094655;28;19907;-85
2022/05/08 04:03:01;;;;;;;;;;;13.20;99.90;;;;;;5093100;28;20047;-85
2022/05/08 04:05:27;;;;;;;4.60;3.65;;;13.20;99.90;;;;;;5094084;28;19911;-86
2022/05/08 04:07:53;;;;;;;7.22;5.05;;;13.30;99.90;;;;;;5095229;28;20030;-85
2022/05/08 04:10:19;;;;;;;;;;;13.30;99.90;;;;;;5114073;28;20028;-86
2022/05/08 04:12:46;;;;;;;7.27;3.90;;;13.30;99.90;;;;;;5095800;28;19911;-85
2022/05/08 04:17:56;;;;;;;4.55;3.13;;;13.40;99.90;;;;;;5113581;28;20115;-85
2022/05/08 04:20:22;;;;;;;;;;;13.40;99.90;;;;;;5113864;28;20048;-85
2022/05/08 04:25:32;;;;;;;5.13;2.67;;;13.60;99.90;;;;;;5113539;28;20030;-86
2022/05/08 04:27:57;;;;;;;;;;;13.60;99.90;;;;;;5114013;28;20024;-85
2022/05/08 04:30:23;;;;;;;10.30;3.03;;;13.80;99.90;;;;;;5113232;28;19912;-84
2022/05/08 04:32:48;;;;;;;;;;;14.00;99.90;;;;;;5114949;28;20076;-86
2022/05/08 04:35:14;;;;;;;4.88;2.80;;;14.10;99.90;;;;;;5095128;28;20426;-84
2022/05/08 04:37:39;;;;;;;;;;;14.40;99.90;;;;;;5095039;28;20027;-84
2022/05/08 04:40:06;;;;;;;8.38;3.08;;;14.50;99.90;;;;;;5094862;28;19907;-86
2022/05/08 04:42:32;;;;;;;3.70;2.72;;;14.60;99.90;;;;;;5094857;28;20476;-85
2022/05/08 04:44:59;;;;;;;;;;;14.80;99.90;;;;;;5113172;28;20035;-85
2022/05/08 04:47:30;;;;;;;;;;;14.90;99.90;;;;;;5113336;28;20364;-85
2022/05/08 04:49:56;;;;;;;3.75;2.95;;;15.20;99.90;;;;;;5112545;28;19912;-85
2022/05/08 04:52:21;;;;;;;;;;;15.40;99.90;;;;;;5094730;28;20034;-86
2022/05/08 04:54:47;;;;;;;3.70;2.75;;;15.60;99.90;;;;;;5094717;28;19903;-86
2022/05/08 04:57:12;;;;;;;;;;;15.80;99.90;;;;;;5113516;28;20171;-84
2022/05/08 04:59:39;;;;;;;4.45;2.80;;;16.00;99.90;;;;;;5094905;28;19904;-86
2022/05/08 05:02:05;;;;;;;4.53;2.60;;;16.20;99.90;;;;;;5094664;28;20035;-85
2022/05/08 05:04:31;;;;;;;5.88;3.17;;;16.30;99.90;;;;;;5094615;28;20027;-84
2022/05/08 05:06:59;;;;;;;4.63;3.08;;;16.60;99.90;;;;;;5094880;28;20035;-85
2022/05/08 05:09:24;;;;;;;7.55;2.85;;;16.80;99.90;;;;;;5094290;28;20043;-86
2022/05/08 05:11:50;;;;;;;4.78;3.08;;;17.10;99.90;;;;;;5095230;28;20028;-85
2022/05/08 05:14:16;;;;;;;3.70;2.83;;;17.40;99.90;;;;;;5093905;28;20028;-85
2022/05/08 05:16:41;;;;;;;4.43;3.47;;;17.70;99.90;;;;;;5094443;28;20046;-84
2022/05/08 05:19:07;;;;;;;4.15;2.70;;;17.90;99.70;;;;;;5112513;28;20112;-84
2022/05/08 05:21:33;;;;;;;6.30;2.10;;;18.20;98.70;;;;;;5094397;28;20051;-86
2022/05/08 05:23:58;;;;;;;4.00;2.47;;;18.40;97.60;;;;;;5094339;28;20437;-86
2022/05/08 05:26:24;;;;;;;11.48;2.33;;;18.70;95.90;;;;;;5093743;28;20385;-86
2022/05/08 05:28:51;;;;;;;5.32;2.60;;;18.90;95.00;;;;;;5112436;28;20084;-86
2022/05/08 05:31:17;;;;;;;4.05;2.65;;;19.20;93.40;;;;;;5094268;28;20049;-86
2022/05/08 05:33:46;;;;;;;10.90;3.63;;;19.50;92.00;;;;;;5094941;28;20039;-87
2022/05/08 05:36:12;;;;;;;8.00;4.22;;;19.90;90.10;;;;;;5096682;28;20045;-87
2022/05/08 05:38:38;;;;;;;13.77;7.25;;;20.10;87.10;;;;;;5093636;28;20055;-86
2022/05/08 05:41:03;;;;;;;19.73;11.60;;;20.40;83.90;;;;;;5112372;28;20092;-87
2022/05/08 05:43:29;;;;;;;14.40;8.40;;;20.60;81.90;;;;;;5093321;28;20491;-87
2022/05/08 05:48:39;;;;;;;8.35;4.78;;;20.70;81.20;;;;;;5111787;28;20079;-87
2022/05/08 05:51:05;;;;;;;7.93;4.15;;;20.90;80.10;;;;;;5094363;28;20130;-86
2022/05/08 05:53:34;;;;;;;5.63;3.92;;;21.20;76.90;;;;;;5093208;28;20034;-86
2022/05/08 05:56:01;;;;;;;4.38;3.45;;;21.40;73.60;;;;;;5094025;28;20398;-88
2022/05/08 05:58:26;;;;;;;7.28;3.38;;;21.50;72.80;;;;;;5111585;28;20023;-87
2022/05/08 06:00:52;;;;;;;8.75;4.47;;;21.50;69.90;;;;;;5093940;28;20031;-87
2022/05/08 06:03:18;;;;;;;9.10;3.88;;;21.90;69.00;;;;;;5093094;28;20109;-86
2022/05/08 06:05:44;;;;;;;6.43;3.05;;;22.30;66.30;;;;;;5093151;28;20028;-86
2022/05/08 06:08:09;;;;;;;3.60;3.00;;;22.90;63.60;;;;;;5111279;28;20027;-87
2022/05/08 06:10:36;;;;;;;7.80;3.17;;;23.50;60.60;;;;;;5111429;28;20039;-86
2022/05/08 06:13:02;;;;;;;4.45;3.40;;;23.60;57.70;;;;;;5093157;28;20432;-87
2022/05/08 06:15:28;;;;;;;6.20;4.32;;;23.70;57.00;;;;;;5091943;28;20035;-88
2022/05/08 06:17:53;;;;;;;4.35;3.05;;;23.90;56.10;;;;;;5111206;28;20019;-87
2022/05/08 06:20:19;;;;;;;7.65;3.60;;;24.70;55.10;;;;;;5093362;28;20027;-88
2022/05/08 06:22:45;;;;;;;6.53;4.00;;;25.40;52.90;;;;;;5093895;28;20583;-88
2022/05/08 06:25:10;;;;;;;4.07;3.17;;;26.00;49.80;;;;;;5101297;28;20392;-89
2022/05/08 06:27:36;;;;;;;6.57;3.17;;;26.20;48.50;;;;;;5095538;28;20038;-88
2022/05/08 06:30:02;;;;;;;3.10;2.60;;;26.60;46.90;;;;;;5110871;28;20044;-88
2022/05/08 06:32:28;;;;;;;4.68;3.03;;;27.00;45.80;;;;;;5111003;28;20098;-88
2022/05/08 06:34:53;;;;;;;4.53;2.90;;;27.50;44.40;;;;;;5111380;28;20559;-86
2022/05/08 06:37:19;;;;;;;3.58;2.20;;;27.40;40.70;;;;;;5110095;28;20083;-87
2022/05/08 06:39:45;;;;;;;7.38;3.13;;;27.80;40.90;;;;;;5110034;28;20483;-86
2022/05/08 06:42:10;;;;;;;7.32;3.15;;;27.80;40.80;;;;;;5093279;28;20038;-87
2022/05/08 06:44:36;;;;;;;7.72;3.50;;;27.70;40.40;;;;;;5090296;28;20399;-87
2022/05/08 06:47:02;;;;;;;3.60;2.50;;;27.80;40.40;;;;;;5090616;28;20035;-88
2022/05/08 06:49:28;;;;;;;10.68;3.03;;;27.90;39.70;;;;;;5092822;28;20031;-88
2022/05/08 06:51:53;;;;;;;4.95;2.50;;;28.20;39.50;;;;;;5092707;28;20484;-87
2022/05/08 06:54:19;;;;;;;6.22;2.58;;;28.40;38.70;;;;;;5092953;28;20028;-87
2022/05/08 06:56:45;;;;;;;6.15;2.80;;;28.50;38.00;;;;;;5093063;28;20294;-86
2022/05/08 07:01:55;;;;;;;3.97;2.17;;;29.10;35.40;;;;;;5064307;28;1332563;-87
2022/05/08 07:04:21;;;;;;;7.57;2.53;;;28.80;36.20;;;;;;5111374;28;20454;-88
2022/05/08 07:06:47;;;;;;;4.47;2.53;;;28.70;37.30;;;;;;5111701;28;20434;-86
2022/05/08 07:09:13;;;;;;;5.93;2.40;;;28.80;35.40;;;;;;5092859;28;20113;-88
2022/05/08 07:11:41;;;;;;;7.95;2.47;;;28.50;35.40;;;;;;5093194;28;20027;-87
2022/05/08 07:14:06;;;;;;;5.10;2.42;;;28.20;36.80;;;;;;5110980;28;20106;-87
2022/05/08 07:16:32;;;;;;;4.72;2.70;;;28.10;37.00;;;;;;5111588;28;20051;-87
2022/05/08 07:18:59;;;;;;;4.25;2.08;;;28.00;36.40;;;;;;5092713;28;20028;-87
2022/05/08 07:21:24;;;;;;;4.22;2.35;;;27.90;35.90;;;;;;5093033;28;20027;-87
2022/05/08 07:23:50;;;;;;;9.73;2.40;;;27.80;36.30;;;;;;5092837;28;20340;-87
2022/05/08 07:26:16;;;;;;;3.65;2.08;;;27.40;37.70;;;;;;5095473;28;20023;-87
2022/05/08 07:28:42;;;;;;;10.18;2.67;;;27.20;38.20;;;;;;5110213;28;20080;-88
2022/05/08 07:31:08;;;;;;;8.77;2.42;;;27.00;37.80;;;;;;5110616;28;20492;-87
2022/05/08 07:33:37;;;;;;;3.00;2.00;;;26.90;38.00;;;;;;5093102;28;20118;-87
2022/05/08 07:36:13;;;;;;;2.65;2.20;;;27.00;37.80;;;;;;5110955;28;20023;-87
2022/05/08 07:38:46;;;;;;;3.88;2.10;;;26.90;36.40;;;;;;5092766;28;20034;-87
2022/05/08 07:41:14;;;;;;;5.93;2.53;;;27.00;37.60;;;;;;5092554;28;20028;-88
2022/05/08 07:43:42;;;;;;;3.35;2.15;;;27.20;37.60;;;;;;5092534;28;20165;-88
2022/05/08 07:46:08;;;;;;;5.18;2.72;;;27.60;37.10;;;;;;5111274;28;20533;-86
2022/05/08 07:48:34;;;;;;;5.38;2.47;;;28.20;36.80;;;;;;5093176;28;20023;-87
2022/05/08 07:51:00;;;;;;;6.85;2.60;;;28.70;36.20;;;;;;5096035;28;20073;-87
2022/05/08 07:53:31;;;;;;;4.10;2.38;;;29.20;34.60;;;;;;5113849;28;20024;-87
2022/05/08 07:55:58;;;;;;;7.47;2.47;;;29.50;34.30;;;;;;5095944;28;20026;-87
2022/05/08 07:58:28;;;;;;;3.53;2.20;;;29.60;33.40;;;;;;5114649;28;20059;-87
2022/05/08 08:00:55;;;;;;;2.78;2.10;;;29.70;33.60;;;;;;5113969;28;20034;-87
2022/05/08 08:03:26;;;;;;;5.90;2.38;;;29.70;33.90;;;;;;5096225;28;20047;-87
2022/05/08 08:05:53;;;;;;;2.60;2.10;;;30.00;34.00;;;;;;5114031;28;20024;-87
2022/05/08 08:08:21;;;;;;;4.78;3.03;;;30.30;33.90;;;;;;5114425;28;20028;-86
2022/05/08 08:10:48;;;;;;;3.63;2.38;;;30.50;32.60;;;;;;5114168;28;20519;-87
2022/05/08 08:13:14;;;;;;;8.45;3.05;;;30.60;33.00;;;;;;5113628;28;20028;-87
2022/05/08 08:15:44;;;;;;;12.18;3.00;;;31.00;32.00;;;;;;5095461;28;20027;-88
2022/05/08 08:18:14;;;;;;;4.03;2.30;;;31.30;31.40;;;;;;5095628;28;20035;-88
2022/05/08 08:20:40;;;;;;;6.80;5.13;;;31.30;30.60;;;;;;5096219;28;20027;-88
2022/05/08 08:23:06;;;;;;;4.68;2.20;;;31.30;31.00;;;;;;5095858;28;20027;-88
2022/05/08 08:25:31;;;;;;;6.30;2.70;;;30.90;30.50;;;;;;5113246;28;20112;-87
2022/05/08 08:27:57;;;;;;;10.70;3.17;;;31.00;31.90;;;;;;5113797;28;20051;-88
2022/05/08 08:30:23;;;;;;;6.65;2.58;;;30.90;32.00;;;;;;5113516;28;20035;-87
2022/05/08 08:32:49;;;;;;;5.13;2.53;;;31.10;31.20;;;;;;5095379;28;20065;-87
2022/05/08 08:35:14;;;;;;;4.30;2.67;;;31.40;29.00;;;;;;5095341;28;20411;-86
2022/05/08 08:37:40;;;;;;;7.28;2.60;;;31.00;30.40;;;;;;5095785;28;20024;-87
2022/05/08 08:40:07;;;;;;;4.38;2.38;;;31.00;31.20;;;;;;5095257;28;20062;-87
2022/05/08 08:42:33;;;;;;;6.28;2.25;;;31.20;31.50;;;;;;5112939;28;20046;-87
2022/05/08 08:48:07;;;;;;;5.68;3.00;;;31.50;29.30;;;;;;5113873;28;20023;-87
2022/05/08 08:50:33;;;;;;;6.05;2.53;;;31.50;29.60;;;;;;5095177;28;20031;-87
2022/05/08 08:53:01;;;;;;;6.65;2.50;;;31.60;29.70;;;;;;5113044;28;20036;-87
2022/05/08 08:55:27;;;;;;;6.47;2.38;;;31.80;30.00;;;;;;5113048;28;20499;-86
2022/05/08 08:57:53;;;;;;;3.63;2.30;;;31.80;28.80;;;;;;5112896;28;20107;-87
2022/05/08 09:00:21;;;;;;;6.13;2.63;;;31.50;29.20;;;;;;5112968;28;20497;-87
2022/05/08 09:02:47;;;;;;;3.88;2.17;;;31.80;30.00;;;;;;5093780;28;20495;-87
2022/05/08 09:05:14;;;;;;;3.97;2.70;;;31.80;29.00;;;;;;5113345;28;20503;-87
2022/05/08 09:07:43;;;;;;;3.85;2.47;;;31.60;29.70;;;;;;5112717;28;20058;-87
2022/05/08 09:10:15;;;;;;;3.67;2.83;;;31.80;30.30;;;;;;5094493;28;20555;-87
2022/05/08 09:12:43;;;;;;;4.35;2.30;;;31.90;29.70;;;;;;5112672;28;20168;-87
2022/05/08 09:15:21;;;;;;;4.95;3.17;;;31.70;29.50;;;;;;5094701;28;20153;-87
2022/05/08 09:17:49;;;;;;;7.18;2.50;;;31.70;30.00;;;;;;5113076;28;20032;-86
2022/05/08 09:20:35;;;;;;;6.28;2.30;;;31.70;29.80;;;;;;5093795;28;20024;-86
2022/05/08 09:23:14;;;;;;;;;;;31.80;30.00;;;;;;5095071;28;20045;-87
2022/05/08 09:25:46;;;;;;;5.78;3.00;;;31.90;30.10;;;;;;5112082;28;20398;-87
2022/05/08 09:28:20;;;;;;;10.02;3.58;;;32.20;30.00;;;;;;5091370;28;20023;-87
2022/05/08 09:30:56;;;;;;;4.77;2.47;;;32.40;28.90;;;;;;5111651;28;20078;-87
2022/05/08 09:33:36;;;;;;;3.50;2.50;;;32.50;29.80;;;;;;5094059;28;20031;-88
2022/05/08 09:36:18;;;;;;;7.18;1.90;;;32.80;29.20;;;;;;5112410;28;20055;-87
2022/05/08 09:38:47;;;;;;;2.85;2.28;;;33.00;29.30;;;;;;5094252;28;20026;-86
2022/05/08 09:41:24;;;;;;;5.10;2.78;;;33.10;29.20;;;;;;5093809;28;20439;-88
2022/05/08 09:43:51;;;;;;;3.95;2.10;;;33.10;28.70;;;;;;5094122;28;20487;-87
2022/05/08 09:46:20;;;;;;;4.03;2.45;;;33.00;28.40;;;;;;5094082;28;20027;-87
2022/05/08 09:48:46;;;;;;;3.55;2.55;;;32.90;28.10;;;;;;5093782;28;20511;-86
2022/05/08 09:51:13;;;;;;;4.60;2.65;;;32.50;28.00;;;;;;5093860;28;20122;-87
2022/05/08 09:53:40;;;;;;;3.42;2.47;;;32.10;28.60;;;;;;5112102;28;20019;-87
2022/05/08 09:56:07;;;;;;;3.92;2.83;;;31.90;28.90;;;;;;5093594;28;20430;-87
2022/05/08 09:58:33;;;;;;;11.05;2.30;;;31.70;29.00;;;;;;5093917;28;20062;-87
2022/05/08 10:01:00;;;;;;;7.30;3.10;;;31.60;29.10;;;;;;5093607;28;20062;-86
2022/05/08 10:03:27;;;;;;;4.95;2.75;;;31.50;29.40;;;;;;5093060;28;20056;-87
2022/05/08 10:05:53;;;;;;;6.72;2.75;;;31.60;30.30;;;;;;5093800;28;20047;-86
2022/05/08 10:08:22;;;;;;;11.32;2.72;;;31.80;30.20;;;;;;5111930;28;20028;-87
2022/05/08 10:14:23;;;;;;;4.05;2.45;;;31.40;29.20;;;;;;5111605;28;20515;-86
2022/05/08 10:17:02;;;;;;;5.70;3.03;;;31.20;30.00;;;;;;5056181;28;20035;-87
2022/05/08 10:19:28;;;;;;;3.42;2.60;;;30.80;29.60;;;;;;5093543;28;20023;-88
2022/05/08 10:21:56;;;;;;;4.60;3.03;;;30.00;30.20;;;;;;5093421;28;20353;-86
2022/05/08 10:24:38;;;;;;;7.38;1.90;;;29.30;31.20;;;;;;5093436;28;20023;-87
2022/05/08 10:27:11;;;;;;;4.80;1.75;;;28.40;31.50;;;;;;5093322;28;20034;-85
2022/05/08 10:29:38;;;;;;;5.63;2.50;;;27.80;31.90;;;;;;5110789;28;20488;-84
2022/05/08 10:32:06;;;;;;;7.65;2.00;;;27.40;32.90;;;;;;5093190;28;20016;-85
2022/05/08 10:34:37;;;;;;;7.03;2.17;;;26.90;34.10;;;;;;5092605;28;20034;-86
2022/05/08 10:37:12;;;;;;;11.75;2.75;;;26.20;34.90;;;;;;5093376;28;20506;-86
2022/05/08 10:39:47;;;;;;;5.78;2.15;;;25.80;36.90;;;;;;5091954;28;20019;-85
2022/05/08 10:42:28;;;;;;;5.20;2.97;;;25.50;37.20;;;;;;5092956;28;20068;-83
2022/05/08 10:44:54;;;;;;;5.05;2.55;;;25.10;38.60;;;;;;5092951;28;20035;-85
2022/05/08 10:47:33;;;;;;;4.63;2.35;;;24.80;38.70;;;;;;5093467;28;20024;-85
2022/05/08 10:50:02;;;;;;;3.83;1.90;;;24.50;40.70;;;;;;5111228;28;20036;-84
2022/05/08 10:52:30;;;;;;;3.65;2.20;;;24.30;39.10;;;;;;5093229;28;20408;-85
2022/05/08 10:54:58;;;;;;;2.95;1.98;;;24.00;40.20;;;;;;5111233;28;20061;-85
2022/05/08 10:57:30;;;;;;;2.75;1.95;;;24.10;40.20;;;;;;5092324;28;20176;-85
2022/05/08 10:59:56;;;;;;;4.57;2.13;;;24.00;39.50;;;;;;5111313;28;20155;-86
2022/05/08 11:02:55;;;;;;;8.45;2.85;;;24.00;39.30;;;;;;5110613;28;20131;-85
2022/05/08 11:05:27;;;;;;;3.08;2.25;;;24.10;40.80;;;;;;5095631;28;20057;-87
2022/05/08 11:07:56;;;;;;;9.63;2.90;;;24.40;41.70;;;;;;5114450;28;20026;-85
2022/05/08 11:10:33;;;;;;;2.78;2.13;;;24.70;38.90;;;;;;5092258;28;20100;-86
2022/05/08 11:13:11;;;;;;;3.63;2.42;;;24.80;39.40;;;;;;5110791;28;20085;-86
2022/05/08 11:15:45;;;;;;;5.13;2.60;;;24.90;38.90;;;;;;5092884;28;20024;-87
2022/05/08 11:18:24;;;;;;;9.35;2.92;;;25.10;39.30;;;;;;5110113;28;20096;-85
2022/05/08 11:20:57;;;;;;;2.88;2.35;;;25.70;38.90;;;;;;5110780;28;20020;-86
2022/05/08 11:23:24;;;;;;;4.68;2.53;;;26.20;37.80;;;;;;5110840;28;20103;-85
2022/05/08 11:25:55;;;;;;;5.13;2.67;;;26.20;37.40;;;;;;5113288;28;20023;-86
2022/05/08 11:28:22;;;;;;;4.28;2.78;;;26.30;37.30;;;;;;5097075;28;20031;-86
2022/05/08 11:30:50;;;;;;;3.95;2.45;;;26.50;36.00;;;;;;5096139;28;20031;-86
2022/05/08 11:36:04;;;;;;;3.03;2.03;;;26.00;36.60;;;;;;5115236;28;20058;-87
2022/05/08 11:38:50;;;;;;;5.90;2.45;;;25.90;37.60;;;;;;5114478;28;20410;-86
2022/05/08 11:41:34;;;;;;;4.15;2.80;;;25.90;36.10;;;;;;5096527;28;20023;-86
2022/05/08 11:44:04;;;;;;;7.25;3.20;;;25.90;36.40;;;;;;5096490;28;20027;-86
2022/05/08 11:46:38;;;;;;;5.60;2.78;;;26.00;36.70;;;;;;5096665;28;20031;-86
2022/05/08 11:49:27;;;;;;;4.72;3.30;;;26.00;38.20;;;;;;5096377;28;20581;-86
2022/05/08 11:51:54;;;;;;;4.50;2.97;;;26.10;35.90;;;;;;5097443;28;20076;-84
2022/05/08 11:54:40;;;;;;;4.72;3.05;;;26.00;37.30;;;;;;5096486;28;20110;-85
2022/05/08 11:57:19;;;;;;;6.70;2.60;;;26.10;37.40;;;;;;5097266;28;20526;-85
2022/05/08 11:59:49;;;;;;;5.35;2.72;;;26.10;37.40;;;;;;5115033;28;20512;-86
2022/05/08 12:02:16;;;;;;;3.92;3.00;;;26.20;36.90;;;;;;5113649;28;20043;-86
2022/05/08 12:04:54;;;;;;;5.55;3.05;;;26.30;35.90;;;;;;5114915;28;20155;-86
2022/05/08 12:07:20;;;;;;;6.97;2.05;;;26.50;36.50;;;;;;5115090;28;20499;-84
2022/05/08 12:09:48;;;;;;;3.42;2.40;;;26.50;35.70;;;;;;5112048;28;20040;-87
2022/05/08 12:12:35;;;;;;;6.78;2.20;;;26.10;34.80;;;;;;5111648;28;20020;-85
2022/05/08 12:15:06;;;;;;;6.25;2.35;;;25.80;35.70;;;;;;5097022;28;20250;-85
2022/05/08 12:17:44;;;;;;;3.35;2.40;;;25.70;35.90;;;;;;5097165;28;20114;-85
2022/05/08 12:20:11;;;;;;;4.18;2.20;;;25.60;36.30;;;;;;5096367;28;20030;-86
2022/05/08 12:22:37;;;;;;;3.42;2.00;;;25.50;35.80;;;;;;5095912;28;20587;-85
2022/05/08 12:25:04;;;;;;;8.10;2.33;;;25.30;35.00;;;;;;5113938;28;20023;-86
2022/05/08 12:27:30;;;;;;;5.82;2.25;;;25.20;34.70;;;;;;5095206;28;20023;-85
2022/05/08 12:29:56;;;;;;;9.77;1.75;;;25.10;35.50;;;;;;5114708;28;20054;-85
2022/05/08 12:32:25;;;;;;;4.55;1.88;;;25.00;35.70;;;;;;5113842;28;20503;-87
2022/05/08 12:34:53;;;;;;;2.70;1.50;;;24.90;34.50;;;;;;5095659;28;20024;-87
2022/05/08 12:37:19;;;;;;;3.13;1.90;;;24.70;34.60;;;;;;5112793;28;20026;-86
2022/05/08 12:39:45;;;;;;;4.60;2.30;;;24.50;35.60;;;;;;5094794;28;20369;-86
2022/05/08 12:42:11;;;;;;;4.45;1.92;;;24.60;35.60;;;;;;5114059;28;20511;-85
2022/05/08 12:44:38;;;;;;;5.25;2.00;;;24.60;34.80;;;;;;5096338;28;20036;-85
2022/05/08 12:47:09;;;;;;;4.65;1.75;;;24.50;35.30;;;;;;5094900;28;20039;-84
2022/05/08 12:49:36;;;;;;;3.42;2.22;;;24.60;34.90;;;;;;5082415;28;20036;-86
2022/05/08 12:52:03;;;;;;;3.65;1.98;;;24.50;35.00;;;;;;5091468;28;20036;-84
2022/05/08 12:54:29;;;;;;;9.00;3.20;;;24.60;35.90;;;;;;5090775;28;20115;-85
2022/05/08 12:56:55;;;;;;;4.07;2.47;;;24.50;35.50;;;;;;5099349;28;20094;-85
2022/05/08 13:02:06;;;;;;;6.72;2.78;;;24.50;36.60;;;;;;5095873;28;20073;-86
2022/05/08 13:04:32;;;;;;;9.23;2.35;;;24.40;37.20;;;;;;5094481;28;20039;-86
2022/05/08 13:06:57;;;;;;;4.22;2.30;;;24.40;36.50;;;;;;5101344;28;20047;-87
2022/05/08 13:09:23;;;;;;;3.47;1.77;;;24.30;36.70;;;;;;5099447;28;20036;-86
2022/05/08 13:11:49;;;;;;;3.65;1.98;;;24.10;36.40;;;;;;5101352;28;20045;-86
2022/05/08 13:14:15;;;;;;;4.07;2.03;;;24.10;37.70;;;;;;5101528;28;20074;-86
2022/05/08 13:16:41;;;;;;;5.57;2.53;;;24.10;38.00;;;;;;5094668;27;20056;-86
2022/05/08 13:19:06;;;;;;;4.07;2.67;;;24.20;38.40;;;;;;5098549;27;20020;-85
2022/05/08 13:21:32;;;;;;;5.20;2.53;;;24.40;38.30;;;;;;5092486;28;20067;-86
2022/05/08 13:23:59;;;;;;;8.68;2.80;;;24.50;39.10;;;;;;5097763;27;20478;-87
2022/05/08 13:26:25;;;;;;;4.13;1.98;;;24.40;37.50;;;;;;5098341;28;20054;-86